PWSweather.com
Personal Weather Stations
Station Observations
MAKAWAOWX1
Up Country Maui, Makawao, HI 96768

Up Country MauiMakawao, HI 96768

Lat: 20.856944, Lon: -156.3149667

Elevation: 1500

Station Type: Davis Vantage Pro

Latest ConditionsUpdated 9:20:10 PM HST Friday, Jan 17, 2020
Currently Today's Max Today's Min Today's Average
Temperature 64.2°F17.9°C 73.7°F23.2°C 63.7°F17.6°C 66.7°F19.3°C
Dew Point 63.0°F17.2°C 68.1°F20.1°C 62.5°F16.9°C 64.5°F18.1°C
Winds 8.1 mph NE13.0 kmh NE 9.2 mph -14.8 kmh - - 4.2 mph 6.8 kmh
Wind Gusts 10.4 mph16.7 kmh 18.4 mph29.6 kmh - -
Humidity 96% 97% 79% 93%
Pressure 29.93 in1013.5 mb 29.93 in1013.5 mb 29.76 in1007.8 mb -
Precipitation - 1.22 in31.0 mm - -
Hour Temp Dew Point Humidity Winds Wind Gusts Pressure Precip Precip Rate Daily Precip Total
09:20 PM 64.2°F17.9°C 63.0°F17.2°C 96% 8.1 mph NE13.0 kmh NE 10.4 mph16.7 kmh 29.93 in1013.5 mb - 0.05 in1.3 mm 1.22 in31.0 mm
09:10 PM 64.2°F17.9°C 63.0°F17.2°C 96% 9.2 mph NE14.8 kmh NE 13.8 mph22.2 kmh 29.93 in1013.5 mb - 0.04 in1.0 mm 1.21 in30.7 mm
09:00 PM 64.2°F17.9°C 63.0°F17.2°C 96% 6.9 mph NE11.1 kmh NE 13.8 mph22.2 kmh 29.92 in1013.2 mb - 0.04 in1.0 mm 1.19 in30.2 mm
08:50 PM 64.1°F17.8°C 62.9°F17.2°C 96% 6.9 mph NE11.1 kmh NE 12.7 mph20.4 kmh 29.92 in1013.2 mb - 0.05 in1.3 mm 1.18 in30.0 mm
08:40 PM 64.2°F17.9°C 63.0°F17.2°C 96% 9.2 mph NE14.8 kmh NE 12.7 mph20.4 kmh 29.92 in1013.2 mb - 0.04 in1.0 mm 1.17 in29.7 mm
08:30 PM 64.1°F17.8°C 62.9°F17.2°C 96% 6.9 mph NE11.1 kmh NE 9.2 mph14.8 kmh 29.91 in1012.9 mb - 0.04 in1.0 mm 1.17 in29.7 mm
08:20 PM 63.7°F17.6°C 62.5°F16.9°C 96% 6.9 mph NE11.1 kmh NE 10.4 mph16.7 kmh 29.91 in1012.9 mb - 0.12 in3.0 mm 1.17 in29.7 mm
08:10 PM 63.8°F17.7°C 62.6°F17.0°C 96% 9.2 mph NE14.8 kmh NE 17.3 mph27.8 kmh 29.91 in1012.9 mb - 0.13 in3.3 mm 1.17 in29.7 mm
08:00 PM 64.1°F17.8°C 62.9°F17.2°C 96% 8.1 mph NE13.0 kmh NE 11.5 mph18.5 kmh 29.91 in1012.9 mb - 0.12 in3.0 mm 1.16 in29.5 mm
07:50 PM 64.0°F17.8°C 62.8°F17.1°C 96% 8.1 mph NE13.0 kmh NE 9.2 mph14.8 kmh 29.90 in1012.5 mb - 0.12 in3.0 mm 1.14 in29.0 mm
07:40 PM 64.1°F17.8°C 62.9°F17.2°C 96% 8.1 mph NE13.0 kmh NE 12.7 mph20.4 kmh 29.90 in1012.5 mb - 0.11 in2.8 mm 1.13 in28.7 mm
07:30 PM 64.5°F18.1°C 63.3°F17.4°C 96% 9.2 mph NE14.8 kmh NE 16.1 mph25.9 kmh 29.90 in1012.5 mb - 0.11 in2.8 mm 1.13 in28.7 mm
07:20 PM 64.5°F18.1°C 63.3°F17.4°C 96% 4.6 mph NNE7.4 kmh NNE 4.6 mph7.4 kmh 29.89 in1012.2 mb - 0.05 in1.3 mm 1.07 in27.2 mm
07:10 PM 64.3°F17.9°C 63.1°F17.3°C 96% 9.2 mph NE14.8 kmh NE 9.2 mph14.8 kmh 29.89 in1012.2 mb - 0.03 in0.8 mm 1.04 in26.4 mm
07:00 PM 64.3°F17.9°C 63.2°F17.3°C 96% 6.9 mph N11.1 kmh N 12.7 mph20.4 kmh 29.89 in1012.2 mb - 0.05 in1.3 mm 1.04 in26.4 mm
06:50 PM 64.4°F18.0°C 63.2°F17.3°C 96% 6.9 mph NE11.1 kmh NE 6.9 mph11.1 kmh 29.88 in1011.9 mb - 0.08 in2.0 mm 1.03 in26.2 mm
06:40 PM 64.7°F18.2°C 63.3°F17.4°C 95% 9.2 mph NE14.8 kmh NE 13.8 mph22.2 kmh 29.88 in1011.9 mb - 0.10 in2.5 mm 1.02 in25.9 mm
06:30 PM 65.0°F18.3°C 63.6°F17.6°C 95% 9.2 mph NNE14.8 kmh NNE 15.0 mph24.1 kmh 29.87 in1011.5 mb - 0.16 in4.1 mm 1.02 in25.9 mm
06:20 PM 65.1°F18.4°C 63.7°F17.6°C 95% 8.1 mph NNE13.0 kmh NNE 15.0 mph24.1 kmh 29.87 in1011.5 mb - 0.19 in4.8 mm 1.02 in25.9 mm
06:10 PM 65.5°F18.6°C 64.0°F17.8°C 95% 6.9 mph N11.1 kmh N 18.4 mph29.6 kmh 29.86 in1011.2 mb - 0.20 in5.1 mm 1.01 in25.7 mm
06:00 PM 65.6°F18.7°C 64.1°F17.8°C 95% 6.9 mph NNE11.1 kmh NNE 12.7 mph20.4 kmh 29.86 in1011.2 mb - 0.19 in4.8 mm 0.99 in25.1 mm
05:50 PM 66.1°F18.9°C 64.6°F18.1°C 95% 5.8 mph NE9.3 kmh NE 6.9 mph11.1 kmh 29.86 in1011.2 mb - 0.15 in3.8 mm 0.95 in24.1 mm
05:40 PM 66.3°F19.1°C 64.9°F18.3°C 95% 5.8 mph NE9.3 kmh NE 11.5 mph18.5 kmh 29.85 in1010.8 mb - 0.14 in3.6 mm 0.93 in23.6 mm
05:30 PM 66.5°F19.2°C 64.7°F18.2°C 94% 6.9 mph NE11.1 kmh NE 10.4 mph16.7 kmh 29.85 in1010.8 mb - 0.09 in2.3 mm 0.88 in22.4 mm
05:20 PM 66.8°F19.3°C 65.0°F18.3°C 94% 4.6 mph NE7.4 kmh NE 5.8 mph9.3 kmh 29.84 in1010.5 mb - 0.04 in1.0 mm 0.83 in21.1 mm
05:10 PM 67.0°F19.4°C 64.9°F18.3°C 93% 5.8 mph NE9.3 kmh NE 9.2 mph14.8 kmh 29.84 in1010.5 mb - 0.02 in0.5 mm 0.81 in20.6 mm
05:00 PM 67.4°F19.7°C 65.6°F18.7°C 94% 4.6 mph NE7.4 kmh NE 9.2 mph14.8 kmh 29.84 in1010.5 mb - 0.01 in0.3 mm 0.80 in20.3 mm
04:50 PM 67.7°F19.8°C 65.6°F18.7°C 93% 5.8 mph NNE9.3 kmh NNE 8.1 mph13.0 kmh 29.84 in1010.5 mb - 0.01 in0.3 mm 0.80 in20.3 mm
04:40 PM 68.3°F20.2°C 65.6°F18.7°C 91% 8.1 mph NE13.0 kmh NE 11.5 mph18.5 kmh 29.83 in1010.2 mb - 0.00 in0.0 mm 0.79 in20.1 mm
04:30 PM 69.0°F20.6°C 66.3°F19.1°C 91% 5.8 mph NNE9.3 kmh NNE 11.5 mph18.5 kmh 29.83 in1010.2 mb - 0.00 in0.0 mm 0.79 in20.1 mm
04:20 PM 69.4°F20.8°C 66.4°F19.1°C 90% 5.8 mph NNE9.3 kmh NNE 6.9 mph11.1 kmh 29.82 in1009.8 mb - 0.00 in0.0 mm 0.79 in20.1 mm
04:10 PM 70.4°F21.3°C 67.0°F19.4°C 89% 5.8 mph NE9.3 kmh NE 10.4 mph16.7 kmh 29.82 in1009.8 mb - 0.00 in0.0 mm 0.79 in20.1 mm
04:00 PM 71.1°F21.7°C 68.1°F20.1°C 90% 2.3 mph NNE3.7 kmh NNE 4.6 mph7.4 kmh 29.82 in1009.8 mb - 0.00 in0.0 mm 0.79 in20.1 mm
03:50 PM 71.0°F21.7°C 67.6°F19.8°C 89% 5.8 mph NE9.3 kmh NE 6.9 mph11.1 kmh 29.82 in1009.8 mb - 0.00 in0.0 mm 0.79 in20.1 mm
03:40 PM 71.6°F22.0°C 67.9°F19.9°C 88% 3.5 mph NNE5.6 kmh NNE 9.2 mph14.8 kmh 29.82 in1009.8 mb - 0.00 in0.0 mm 0.79 in20.1 mm
03:30 PM 72.0°F22.2°C 66.5°F19.2°C 83% 6.9 mph NE11.1 kmh NE 10.4 mph16.7 kmh 29.81 in1009.5 mb - 0.00 in0.0 mm 0.79 in20.1 mm
03:20 PM 72.3°F22.4°C 67.5°F19.7°C 85% 8.1 mph ENE13.0 kmh ENE 10.4 mph16.7 kmh 29.81 in1009.5 mb - 0.00 in0.0 mm 0.79 in20.1 mm
03:10 PM 72.6°F22.6°C 67.1°F19.5°C 83% 6.9 mph NE11.1 kmh NE 9.2 mph14.8 kmh 29.81 in1009.5 mb - 0.00 in0.0 mm 0.79 in20.1 mm
03:00 PM 72.9°F22.7°C 66.7°F19.3°C 81% 4.6 mph NNE7.4 kmh NNE 6.9 mph11.1 kmh 29.81 in1009.5 mb - 0.00 in0.0 mm 0.79 in20.1 mm
02:50 PM 73.0°F22.8°C 66.9°F19.4°C 81% 4.6 mph ENE7.4 kmh ENE 10.4 mph16.7 kmh 29.81 in1009.5 mb - 0.00 in0.0 mm 0.79 in20.1 mm
02:40 PM 73.1°F22.8°C 66.9°F19.4°C 81% 8.1 mph NE13.0 kmh NE 10.4 mph16.7 kmh 29.82 in1009.8 mb - 0.00 in0.0 mm 0.79 in20.1 mm
02:30 PM 72.7°F22.6°C 66.5°F19.2°C 81% 5.8 mph ENE9.3 kmh ENE 9.2 mph14.8 kmh 29.82 in1009.8 mb - 0.00 in0.0 mm 0.79 in20.1 mm
02:20 PM 72.2°F22.3°C 66.7°F19.3°C 83% 5.8 mph NE9.3 kmh NE 9.2 mph14.8 kmh 29.82 in1009.8 mb - 0.00 in0.0 mm 0.79 in20.1 mm
02:10 PM 72.2°F22.3°C 67.7°F19.8°C 86% 3.5 mph NE5.6 kmh NE 8.1 mph13.0 kmh 29.82 in1009.8 mb - 0.00 in0.0 mm 0.79 in20.1 mm
02:00 PM 71.6°F22.0°C 67.2°F19.6°C 86% 2.3 mph NNE3.7 kmh NNE 4.6 mph7.4 kmh 29.83 in1010.2 mb - 0.00 in0.0 mm 0.79 in20.1 mm
01:50 PM 72.2°F22.3°C 66.7°F19.3°C 83% 4.6 mph N7.4 kmh N 6.9 mph11.1 kmh 29.83 in1010.2 mb - 0.00 in0.0 mm 0.79 in20.1 mm
01:40 PM 72.8°F22.7°C 66.9°F19.4°C 82% 3.5 mph N5.6 kmh N 8.1 mph13.0 kmh 29.83 in1010.2 mb - 0.00 in0.0 mm 0.79 in20.1 mm
01:30 PM 73.3°F22.9°C 67.1°F19.5°C 81% 3.5 mph ENE5.6 kmh ENE 4.6 mph7.4 kmh 29.84 in1010.5 mb - 0.00 in0.0 mm 0.79 in20.1 mm
01:20 PM 73.7°F23.2°C 66.8°F19.3°C 79% 4.6 mph N7.4 kmh N 6.9 mph11.1 kmh 29.84 in1010.5 mb - 0.00 in0.0 mm 0.79 in20.1 mm
01:10 PM 72.8°F22.7°C 66.9°F19.4°C 82% 3.5 mph ENE5.6 kmh ENE 4.6 mph7.4 kmh 29.84 in1010.5 mb - 0.00 in0.0 mm 0.79 in20.1 mm
01:00 PM 72.3°F22.4°C 67.6°F19.8°C 85% 5.8 mph NE9.3 kmh NE 10.4 mph16.7 kmh 29.85 in1010.8 mb - 0.00 in0.0 mm 0.79 in20.1 mm
12:50 PM 71.5°F21.9°C 66.4°F19.1°C 84% 3.5 mph NE5.6 kmh NE 3.5 mph5.6 kmh 29.86 in1011.2 mb - 0.00 in0.0 mm 0.79 in20.1 mm
12:40 PM 70.8°F21.6°C 66.7°F19.3°C 87% 2.3 mph ENE3.7 kmh ENE 8.1 mph13.0 kmh 29.87 in1011.5 mb - 0.01 in0.3 mm 0.79 in20.1 mm
12:30 PM 69.4°F20.8°C 65.7°F18.7°C 88% 4.6 mph NE7.4 kmh NE 5.8 mph9.3 kmh 29.87 in1011.5 mb - 0.01 in0.3 mm 0.79 in20.1 mm
12:20 PM 69.0°F20.6°C 66.3°F19.1°C 91% 4.6 mph E7.4 kmh E 6.9 mph11.1 kmh 29.88 in1011.9 mb - 0.01 in0.3 mm 0.79 in20.1 mm
12:10 PM 67.6°F19.8°C 65.5°F18.6°C 93% 3.5 mph E5.6 kmh E 6.9 mph11.1 kmh 29.88 in1011.9 mb - 0.01 in0.3 mm 0.79 in20.1 mm
12:00 PM 67.2°F19.6°C 64.8°F18.2°C 92% 3.5 mph ENE5.6 kmh ENE 4.6 mph7.4 kmh 29.88 in1011.9 mb - 0.01 in0.3 mm 0.79 in20.1 mm
11:50 AM 67.7°F19.8°C 64.6°F18.1°C 90% 3.5 mph E5.6 kmh E 9.2 mph14.8 kmh 29.89 in1012.2 mb - 0.01 in0.3 mm 0.79 in20.1 mm
11:40 AM 68.1°F20.1°C 64.4°F18.0°C 88% 3.5 mph ENE5.6 kmh ENE 4.6 mph7.4 kmh 29.89 in1012.2 mb - 0.00 in0.0 mm 0.78 in19.8 mm
11:30 AM 68.1°F20.1°C 64.7°F18.2°C 89% 5.8 mph ENE9.3 kmh ENE 8.1 mph13.0 kmh 29.89 in1012.2 mb - 0.00 in0.0 mm 0.78 in19.8 mm
11:20 AM 67.9°F19.9°C 65.5°F18.6°C 92% 5.8 mph E9.3 kmh E 6.9 mph11.1 kmh 29.90 in1012.5 mb - 0.00 in0.0 mm 0.78 in19.8 mm
11:10 AM 67.4°F19.7°C 65.6°F18.7°C 94% 4.6 mph ENE7.4 kmh ENE 4.6 mph7.4 kmh 29.90 in1012.5 mb - 0.00 in0.0 mm 0.78 in19.8 mm
11:00 AM 67.1°F19.5°C 65.3°F18.5°C 94% 4.6 mph ENE7.4 kmh ENE 5.8 mph9.3 kmh 29.90 in1012.5 mb - 0.00 in0.0 mm 0.78 in19.8 mm
10:50 AM 67.0°F19.4°C 65.5°F18.6°C 95% 3.5 mph ENE5.6 kmh ENE 6.9 mph11.1 kmh 29.90 in1012.5 mb - 0.00 in0.0 mm 0.78 in19.8 mm
10:40 AM 66.4°F19.1°C 65.2°F18.4°C 96% 3.5 mph ENE5.6 kmh ENE 6.9 mph11.1 kmh 29.91 in1012.9 mb - 0.01 in0.3 mm 0.78 in19.8 mm
10:30 AM 65.7°F18.7°C 64.5°F18.1°C 96% 3.5 mph E5.6 kmh E 4.6 mph7.4 kmh 29.91 in1012.9 mb - 0.02 in0.5 mm 0.78 in19.8 mm
10:20 AM 65.2°F18.4°C 64.0°F17.8°C 96% 1.2 mph ENE1.9 kmh ENE 8.1 mph13.0 kmh 29.91 in1012.9 mb - 0.03 in0.8 mm 0.78 in19.8 mm
10:10 AM 65.2°F18.4°C 64.3°F17.9°C 97% 2.3 mph E3.7 kmh E 3.5 mph5.6 kmh 29.91 in1012.9 mb - 0.05 in1.3 mm 0.78 in19.8 mm
10:00 AM 65.0°F18.3°C 63.8°F17.7°C 96% 2.3 mph E3.7 kmh E 3.5 mph5.6 kmh 29.91 in1012.9 mb - 0.07 in1.8 mm 0.78 in19.8 mm
09:50 AM 64.7°F18.2°C 63.9°F17.7°C 97% 4.6 mph NE7.4 kmh NE 6.9 mph11.1 kmh 29.90 in1012.5 mb - 0.09 in2.3 mm 0.78 in19.8 mm
09:40 AM 64.7°F18.2°C 63.5°F17.5°C 96% 4.6 mph NE7.4 kmh NE 8.1 mph13.0 kmh 29.90 in1012.5 mb - 0.09 in2.3 mm 0.77 in19.6 mm
09:30 AM 64.5°F18.1°C 63.3°F17.4°C 96% 1.2 mph NNE1.9 kmh NNE 2.3 mph3.7 kmh 29.90 in1012.5 mb - 0.10 in2.5 mm 0.76 in19.3 mm
09:20 AM 64.4°F18.0°C 63.2°F17.3°C 96% 1.2 mph NE1.9 kmh NE 6.9 mph11.1 kmh 29.89 in1012.2 mb - 0.11 in2.8 mm 0.75 in19.1 mm
09:10 AM 64.4°F18.0°C 63.2°F17.3°C 96% 3.5 mph NNE5.6 kmh NNE 4.6 mph7.4 kmh 29.89 in1012.2 mb - 0.13 in3.3 mm 0.73 in18.5 mm
09:00 AM 64.4°F18.0°C 63.2°F17.3°C 96% 4.6 mph NE7.4 kmh NE 4.6 mph7.4 kmh 29.89 in1012.2 mb - 0.16 in4.1 mm 0.71 in18.0 mm
08:50 AM 64.3°F17.9°C 63.1°F17.3°C 96% 5.8 mph NE9.3 kmh NE 6.9 mph11.1 kmh 29.88 in1011.9 mb - 0.16 in4.1 mm 0.70 in17.8 mm
08:40 AM 64.2°F17.9°C 63.0°F17.2°C 96% 4.6 mph N7.4 kmh N 5.8 mph9.3 kmh 29.88 in1011.9 mb - 0.15 in3.8 mm 0.68 in17.3 mm
08:30 AM 64.5°F18.1°C 63.4°F17.4°C 96% 4.6 mph NNE7.4 kmh NNE 3.5 mph5.6 kmh 29.87 in1011.5 mb - 0.15 in3.8 mm 0.66 in16.8 mm
08:20 AM 64.9°F18.3°C 63.7°F17.6°C 96% 2.3 mph NNW3.7 kmh NNW 4.6 mph7.4 kmh 29.87 in1011.5 mb - 0.15 in3.8 mm 0.64 in16.3 mm
08:10 AM 64.9°F18.3°C 63.7°F17.6°C 96% 3.5 mph E5.6 kmh E 5.8 mph9.3 kmh 29.86 in1011.2 mb - 0.14 in3.6 mm 0.61 in15.5 mm
08:00 AM 64.9°F18.3°C 63.7°F17.6°C 96% 1.2 mph E1.9 kmh E 3.5 mph5.6 kmh 29.86 in1011.2 mb - 0.13 in3.3 mm 0.56 in14.2 mm
07:50 AM 64.8°F18.2°C 63.6°F17.6°C 96% 1.2 mph E1.9 kmh E 2.3 mph3.7 kmh 29.85 in1010.8 mb - 0.16 in4.1 mm 0.54 in13.7 mm
07:40 AM 64.6°F18.1°C 63.4°F17.4°C 96% 4.6 mph N7.4 kmh N 10.4 mph16.7 kmh 29.85 in1010.8 mb - 0.25 in6.4 mm 0.53 in13.5 mm
07:30 AM 64.5°F18.1°C 63.3°F17.4°C 96% 1.2 mph ENE1.9 kmh ENE 1.2 mph1.9 kmh 29.85 in1010.8 mb - 0.32 in8.1 mm 0.51 in13.0 mm
07:20 AM 64.7°F18.2°C 63.5°F17.5°C 96% Calm Calm -- 29.85 in1010.8 mb - 0.31 in7.9 mm 0.49 in12.4 mm
07:10 AM 65.1°F18.4°C 64.0°F17.8°C 96% 1.2 mph N1.9 kmh N 3.5 mph5.6 kmh 29.84 in1010.5 mb - 0.32 in8.1 mm 0.47 in11.9 mm
07:00 AM 65.6°F18.7°C 64.4°F18.0°C 96% 3.5 mph NW5.6 kmh NW 3.5 mph5.6 kmh 29.84 in1010.5 mb - 0.28 in7.1 mm 0.43 in10.9 mm
06:50 AM 65.9°F18.8°C 64.7°F18.2°C 96% 1.2 mph NW1.9 kmh NW 3.5 mph5.6 kmh 29.83 in1010.2 mb - 0.28 in7.1 mm 0.39 in9.9 mm
06:40 AM 66.3°F19.1°C 65.1°F18.4°C 96% Calm Calm -- 29.82 in1009.8 mb - 0.22 in5.6 mm 0.30 in7.6 mm
06:30 AM 66.3°F19.1°C 65.2°F18.4°C 96% 2.3 mph WNW3.7 kmh WNW 3.5 mph5.6 kmh 29.82 in1009.8 mb - 0.13 in3.3 mm 0.20 in5.1 mm
06:20 AM 66.4°F19.1°C 65.2°F18.4°C 96% Calm Calm -- 29.81 in1009.5 mb - 0.11 in2.8 mm 0.18 in4.6 mm
06:10 AM 66.5°F19.2°C 65.3°F18.5°C 96% Calm Calm 2.3 mph3.7 kmh 29.81 in1009.5 mb - 0.08 in2.0 mm 0.15 in3.8 mm
06:00 AM 66.4°F19.1°C 65.2°F18.4°C 96% 3.5 mph SW5.6 kmh SW 3.5 mph5.6 kmh 29.80 in1009.1 mb - 0.08 in2.0 mm 0.15 in3.8 mm
05:50 AM 66.2°F19.0°C 64.7°F18.2°C 95% 3.5 mph S5.6 kmh S 8.1 mph13.0 kmh 29.80 in1009.1 mb - 0.06 in1.5 mm 0.12 in3.0 mm
05:40 AM 66.1°F18.9°C 64.6°F18.1°C 95% 2.3 mph S3.7 kmh S 3.5 mph5.6 kmh 29.79 in1008.8 mb - 0.04 in1.0 mm 0.08 in2.0 mm
05:30 AM 66.1°F18.9°C 64.6°F18.1°C 95% 2.3 mph S3.7 kmh S 3.5 mph5.6 kmh 29.79 in1008.8 mb - 0.06 in1.5 mm 0.07 in1.8 mm
05:20 AM 65.9°F18.8°C 64.4°F18.0°C 95% 2.3 mph SSW3.7 kmh SSW 4.6 mph7.4 kmh 29.78 in1008.5 mb - 0.07 in1.8 mm 0.07 in1.8 mm
05:10 AM 65.7°F18.7°C 64.2°F17.9°C 95% Calm Calm 2.3 mph3.7 kmh 29.78 in1008.5 mb - 0.07 in1.8 mm 0.07 in1.8 mm
05:00 AM 65.6°F18.7°C 64.1°F17.8°C 95% 2.3 mph S3.7 kmh S 3.5 mph5.6 kmh 29.78 in1008.5 mb - 0.07 in1.8 mm 0.07 in1.8 mm
04:50 AM 65.6°F18.7°C 64.1°F17.8°C 95% 1.2 mph S1.9 kmh S 3.5 mph5.6 kmh 29.78 in1008.5 mb - 0.06 in1.5 mm 0.06 in1.5 mm
04:40 AM 65.3°F18.5°C 63.8°F17.7°C 95% 1.2 mph S1.9 kmh S 3.5 mph5.6 kmh 29.77 in1008.1 mb - 0.05 in1.3 mm 0.05 in1.3 mm
04:30 AM 65.0°F18.3°C 63.2°F17.3°C 94% 1.2 mph S1.9 kmh S 3.5 mph5.6 kmh 29.77 in1008.1 mb - 0.01 in0.3 mm 0.01 in0.3 mm
04:20 AM 64.9°F18.3°C 63.5°F17.5°C 95% 2.3 mph S3.7 kmh S 3.5 mph5.6 kmh 29.77 in1008.1 mb - 0.00 in0.0 mm 0.00 in0.0 mm
04:10 AM 64.9°F18.3°C 63.4°F17.4°C 95% 3.5 mph S5.6 kmh S 3.5 mph5.6 kmh 29.77 in1008.1 mb - 0.00 in0.0 mm 0.00 in0.0 mm
04:00 AM 64.7°F18.2°C 63.2°F17.3°C 95% 2.3 mph S3.7 kmh S 3.5 mph5.6 kmh 29.77 in1008.1 mb - 0.00 in0.0 mm 0.00 in0.0 mm
03:50 AM 64.7°F18.2°C 63.2°F17.3°C 95% Calm Calm -- 29.77 in1008.1 mb - 0.00 in0.0 mm 0.00 in0.0 mm
03:40 AM 64.7°F18.2°C 63.2°F17.3°C 95% Calm Calm -- 29.76 in1007.8 mb - 0.00 in0.0 mm 0.00 in0.0 mm
03:30 AM 64.6°F18.1°C 63.1°F17.3°C 95% 1.2 mph SSE1.9 kmh SSE 2.3 mph3.7 kmh 29.76 in1007.8 mb - 0.00 in0.0 mm 0.00 in0.0 mm
03:20 AM 64.4°F18.0°C 63.0°F17.2°C 95% 2.3 mph SSE3.7 kmh SSE 3.5 mph5.6 kmh 29.77 in1008.1 mb - 0.00 in0.0 mm 0.00 in0.0 mm
03:10 AM 64.2°F17.9°C 62.5°F16.9°C 94% 2.3 mph SSE3.7 kmh SSE 3.5 mph5.6 kmh 29.77 in1008.1 mb - 0.00 in0.0 mm 0.00 in0.0 mm
03:00 AM 64.3°F17.9°C 62.5°F16.9°C 94% 3.5 mph SSE5.6 kmh SSE 3.5 mph5.6 kmh 29.77 in1008.1 mb - 0.00 in0.0 mm 0.00 in0.0 mm
02:50 AM 64.6°F18.1°C 62.8°F17.1°C 94% 2.3 mph SSE3.7 kmh SSE 3.5 mph5.6 kmh 29.77 in1008.1 mb - 0.00 in0.0 mm 0.00 in0.0 mm
02:40 AM 64.9°F18.3°C 63.1°F17.3°C 94% 2.3 mph S3.7 kmh S 2.3 mph3.7 kmh 29.77 in1008.1 mb - 0.00 in0.0 mm 0.00 in0.0 mm
02:30 AM 65.0°F18.3°C 63.5°F17.5°C 95% 2.3 mph SE3.7 kmh SE 3.5 mph5.6 kmh 29.77 in1008.1 mb - 0.00 in0.0 mm 0.00 in0.0 mm
02:20 AM 65.0°F18.3°C 63.5°F17.5°C 95% 3.5 mph S5.6 kmh S 5.8 mph9.3 kmh 29.77 in1008.1 mb - 0.00 in0.0 mm 0.00 in0.0 mm
02:10 AM 65.0°F18.3°C 63.5°F17.5°C 95% 4.6 mph SSE7.4 kmh SSE 6.9 mph11.1 kmh 29.78 in1008.5 mb - 0.00 in0.0 mm 0.00 in0.0 mm
02:00 AM 65.1°F18.4°C 63.6°F17.6°C 95% 3.5 mph S5.6 kmh S 3.5 mph5.6 kmh 29.77 in1008.1 mb - 0.00 in0.0 mm 0.00 in0.0 mm
01:50 AM 65.1°F18.4°C 63.6°F17.6°C 95% 4.6 mph S7.4 kmh S 3.5 mph5.6 kmh 29.78 in1008.5 mb - 0.00 in0.0 mm 0.00 in0.0 mm
01:40 AM 65.2°F18.4°C 63.7°F17.6°C 95% 4.6 mph S7.4 kmh S 5.8 mph9.3 kmh 29.78 in1008.5 mb - 0.00 in0.0 mm 0.00 in0.0 mm
01:30 AM 65.1°F18.4°C 63.6°F17.6°C 95% 4.6 mph S7.4 kmh S 4.6 mph7.4 kmh 29.78 in1008.5 mb - 0.00 in0.0 mm 0.00 in0.0 mm
01:20 AM 65.1°F18.4°C 63.3°F17.4°C 94% 2.3 mph S3.7 kmh S 3.5 mph5.6 kmh 29.78 in1008.5 mb - 0.00 in0.0 mm 0.00 in0.0 mm
01:10 AM 65.2°F18.4°C 63.4°F17.4°C 94% 3.5 mph S5.6 kmh S 3.5 mph5.6 kmh 29.78 in1008.5 mb - 0.00 in0.0 mm 0.00 in0.0 mm
01:00 AM 65.4°F18.6°C 63.6°F17.6°C 94% 1.2 mph SSE1.9 kmh SSE 3.5 mph5.6 kmh 29.78 in1008.5 mb - 0.00 in0.0 mm 0.00 in0.0 mm
12:50 AM 65.6°F18.7°C 64.1°F17.8°C 95% 2.3 mph S3.7 kmh S 5.8 mph9.3 kmh 29.78 in1008.5 mb - 0.00 in0.0 mm 0.00 in0.0 mm
12:40 AM 65.6°F18.7°C 64.1°F17.8°C 95% 3.5 mph S5.6 kmh S 5.8 mph9.3 kmh 29.78 in1008.5 mb - 0.00 in0.0 mm 0.00 in0.0 mm
12:30 AM 65.7°F18.7°C 64.2°F17.9°C 95% 3.5 mph S5.6 kmh S 6.9 mph11.1 kmh 29.79 in1008.8 mb - 0.00 in0.0 mm 0.00 in0.0 mm
12:20 AM 65.8°F18.8°C 64.3°F17.9°C 95% 2.3 mph S3.7 kmh S 3.5 mph5.6 kmh 29.79 in1008.8 mb - 0.00 in0.0 mm 0.00 in0.0 mm
12:10 AM 65.8°F18.8°C 64.0°F17.8°C 94% 3.5 mph SSE5.6 kmh SSE 4.6 mph7.4 kmh 29.79 in1008.8 mb - 0.00 in0.0 mm 0.00 in0.0 mm
12:00 AM 65.9°F18.8°C 64.1°F17.8°C 94% 2.3 mph S3.7 kmh S 3.5 mph5.6 kmh 29.79 in1008.8 mb - 0.00 in0.0 mm 0.00 in0.0 mm